85395 UWUU-UNWW
Flight info
| Callsign | 85395 |
|---|---|
| Flight time | 2h 43m |
| Altitude | 35000 |
| Route | K0859F330 IPRO3N IPROK L749 BASAB T762 ABALI L158 PEMAG/K0846F350 L158 OKETI R234 ABESA L158 GIMUK GIMU1P |
| Aircraft | T154/M-J/L |
Departure
| Time | 2026-05-04 09:46 |
|---|---|
| Airport | Ufa International Airport (UWUU) |
Arrival
| Time | 2026-05-04 12:29 |
|---|---|
| Airport | Spichenkovo Airport (UNWW) |
| Time | Latitude | Longitude | Altitude | Speed | Heading |
|---|---|---|---|---|---|
| 2026-05-04 09:28 | 54.56210 | 55.88581 | 390 ft | 0 kts | 60° |
| 2026-05-04 09:28 | 54.56205 | 55.88566 | 390 ft | 2 kts | 60° |
| 2026-05-04 09:29 | 54.56197 | 55.88544 | 390 ft | 2 kts | 60° |
| 2026-05-04 09:29 | 54.56190 | 55.88521 | 390 ft | 2 kts | 58° |
| 2026-05-04 09:29 | 54.56176 | 55.88474 | 389 ft | 5 kts | 67° |
| 2026-05-04 09:29 | 54.56163 | 55.88410 | 388 ft | 5 kts | 73° |
| 2026-05-04 09:30 | 54.56158 | 55.88376 | 387 ft | 0 kts | 77° |
| 2026-05-04 09:37 | 54.56160 | 55.88390 | 388 ft | 3 kts | 77° |
| 2026-05-04 09:37 | 54.56158 | 55.88458 | 389 ft | 7 kts | 114° |
| 2026-05-04 09:38 | 54.56114 | 55.88534 | 390 ft | 11 kts | 148° |
| 2026-05-04 09:38 | 54.56028 | 55.88618 | 390 ft | 16 kts | 152° |
| 2026-05-04 09:38 | 54.55930 | 55.88714 | 390 ft | 16 kts | 151° |
| 2026-05-04 09:38 | 54.55828 | 55.88810 | 390 ft | 16 kts | 152° |
| 2026-05-04 09:39 | 54.55722 | 55.88908 | 390 ft | 17 kts | 152° |
| 2026-05-04 09:39 | 54.55614 | 55.89005 | 390 ft | 18 kts | 153° |
| 2026-05-04 09:39 | 54.55495 | 55.89113 | 388 ft | 19 kts | 144° |
| 2026-05-04 09:39 | 54.55379 | 55.89244 | 387 ft | 20 kts | 149° |
| 2026-05-04 09:40 | 54.55254 | 55.89366 | 387 ft | 20 kts | 151° |
| 2026-05-04 09:40 | 54.55126 | 55.89488 | 387 ft | 21 kts | 151° |
| 2026-05-04 09:40 | 54.55003 | 55.89608 | 387 ft | 16 kts | 153° |
| 2026-05-04 09:40 | 54.54914 | 55.89609 | 389 ft | 12 kts | 210° |
| 2026-05-04 09:41 | 54.54851 | 55.89544 | 394 ft | 8 kts | 211° |
| 2026-05-04 09:42 | 54.54622 | 55.88940 | 419 ft | 18 kts | 251° |
| 2026-05-04 09:43 | 54.54581 | 55.88737 | 426 ft | 16 kts | 251° |
| 2026-05-04 09:43 | 54.54546 | 55.88567 | 430 ft | 14 kts | 250° |
| 2026-05-04 09:43 | 54.54516 | 55.88415 | 433 ft | 12 kts | 251° |
| 2026-05-04 09:43 | 54.54491 | 55.88296 | 435 ft | 9 kts | 251° |
| 2026-05-04 09:44 | 54.54465 | 55.88167 | 436 ft | 15 kts | 250° |
| 2026-05-04 09:44 | 54.54427 | 55.87978 | 440 ft | 15 kts | 251° |
| 2026-05-04 09:44 | 54.54396 | 55.87815 | 442 ft | 13 kts | 266° |
| 2026-05-04 09:46 | 54.57925 | 55.84301 | 1366 ft | 177 kts | 329° |
| 2026-05-04 09:46 | 54.59067 | 55.83179 | 1805 ft | 201 kts | 328° |
| 2026-05-04 09:46 | 54.60365 | 55.81913 | 2239 ft | 226 kts | 332° |
| 2026-05-04 09:47 | 54.61786 | 55.80586 | 2667 ft | 244 kts | 332° |
| 2026-05-04 09:47 | 54.63272 | 55.79163 | 3450 ft | 245 kts | 331° |
| 2026-05-04 09:49 | 54.73984 | 55.68816 | 8867 ft | 263 kts | 333° |
| 2026-05-04 09:49 | 54.75754 | 55.68068 | 9458 ft | 271 kts | 2° |
| 2026-05-04 09:49 | 54.77550 | 55.68976 | 10221 ft | 274 kts | 32° |
| 2026-05-04 09:51 | 54.84499 | 55.87131 | 12967 ft | 342 kts | 55° |
| 2026-05-04 09:51 | 54.85863 | 55.90604 | 13244 ft | 357 kts | 55° |
| 2026-05-04 09:51 | 54.87262 | 55.94160 | 13879 ft | 359 kts | 55° |
| 2026-05-04 09:51 | 54.88668 | 55.97741 | 14494 ft | 362 kts | 55° |
| 2026-05-04 09:52 | 54.90076 | 56.01328 | 15104 ft | 365 kts | 55° |
| 2026-05-04 09:52 | 54.91505 | 56.04971 | 15686 ft | 369 kts | 55° |
| 2026-05-04 09:52 | 54.92945 | 56.08649 | 16282 ft | 372 kts | 55° |
| 2026-05-04 09:52 | 54.94401 | 56.12374 | 16828 ft | 376 kts | 55° |
| 2026-05-04 09:53 | 54.95869 | 56.16135 | 17434 ft | 378 kts | 55° |
| 2026-05-04 09:53 | 54.97331 | 56.19887 | 18029 ft | 380 kts | 55° |
| 2026-05-04 09:53 | 54.98823 | 56.23719 | 18607 ft | 383 kts | 55° |
| 2026-05-04 09:53 | 55.00310 | 56.27544 | 19098 ft | 388 kts | 55° |
| 2026-05-04 09:54 | 55.01830 | 56.31461 | 19588 ft | 393 kts | 55° |
| 2026-05-04 09:54 | 55.03347 | 56.35381 | 20087 ft | 397 kts | 55° |
| 2026-05-04 09:54 | 55.04911 | 56.39425 | 20574 ft | 401 kts | 55° |
| 2026-05-04 09:54 | 55.06466 | 56.43450 | 21019 ft | 407 kts | 55° |
| 2026-05-04 09:55 | 55.08046 | 56.47554 | 21475 ft | 412 kts | 56° |
| 2026-05-04 09:55 | 55.09292 | 56.52055 | 21848 ft | 418 kts | 74° |
| 2026-05-04 09:55 | 55.09863 | 56.57027 | 22322 ft | 421 kts | 82° |
| 2026-05-04 09:55 | 55.10336 | 56.62074 | 22727 ft | 427 kts | 81° |
| 2026-05-04 09:56 | 55.10880 | 56.67138 | 23131 ft | 432 kts | 81° |
| 2026-05-04 09:56 | 55.11440 | 56.72370 | 23506 ft | 438 kts | 81° |
| 2026-05-04 09:56 | 55.11984 | 56.77576 | 23958 ft | 441 kts | 82° |
| 2026-05-04 09:56 | 55.12528 | 56.82849 | 24307 ft | 447 kts | 82° |
| 2026-05-04 09:57 | 55.13080 | 56.88212 | 24654 ft | 453 kts | 82° |
| 2026-05-04 09:57 | 55.13639 | 56.93678 | 25021 ft | 459 kts | 82° |
| 2026-05-04 09:57 | 55.14201 | 56.99200 | 25531 ft | 461 kts | 82° |
| 2026-05-04 09:57 | 55.14758 | 57.04682 | 26138 ft | 460 kts | 82° |
| 2026-05-04 09:58 | 55.15308 | 57.10130 | 26644 ft | 462 kts | 82° |
| 2026-05-04 09:58 | 55.15859 | 57.15624 | 27191 ft | 462 kts | 83° |
| 2026-05-04 09:58 | 55.16415 | 57.21190 | 27692 ft | 464 kts | 83° |
| 2026-05-04 10:00 | 55.20251 | 57.60356 | 31229 ft | 472 kts | 83° |
| 2026-05-04 10:00 | 55.20796 | 57.66028 | 31579 ft | 476 kts | 84° |
| 2026-05-04 10:02 | 55.24759 | 58.08247 | 33002 ft | 519 kts | 83° |
| 2026-05-04 10:04 | 55.28762 | 58.52128 | 34681 ft | 522 kts | 82° |
| 2026-05-04 10:04 | 55.29316 | 58.58383 | 34810 ft | 521 kts | 81° |
| 2026-05-04 10:04 | 55.29868 | 58.64616 | 34899 ft | 521 kts | 81° |
| 2026-05-04 10:05 | 55.30969 | 58.77203 | 35074 ft | 523 kts | 82° |
| 2026-05-04 10:05 | 55.31511 | 58.83452 | 35218 ft | 523 kts | 82° |
| 2026-05-04 10:05 | 55.32059 | 58.89793 | 35207 ft | 523 kts | 83° |
| 2026-05-04 10:06 | 55.33128 | 59.02295 | 35177 ft | 523 kts | 82° |
| 2026-05-04 10:06 | 55.34196 | 59.14917 | 35163 ft | 524 kts | 82° |
| 2026-05-04 10:08 | 55.37820 | 59.59089 | 35152 ft | 524 kts | 82° |
| 2026-05-04 10:08 | 55.38823 | 59.71683 | 35110 ft | 526 kts | 83° |
| 2026-05-04 10:09 | 55.39506 | 59.84504 | 35131 ft | 525 kts | 89° |
| 2026-05-04 10:09 | 55.39824 | 59.97296 | 35123 ft | 527 kts | 89° |
| 2026-05-04 10:10 | 55.40179 | 60.10049 | 35120 ft | 527 kts | 89° |
| 2026-05-04 10:10 | 55.40527 | 60.22835 | 35145 ft | 525 kts | 89° |
| 2026-05-04 10:11 | 55.40861 | 60.35638 | 35168 ft | 526 kts | 89° |
| 2026-05-04 10:11 | 55.41180 | 60.48421 | 35158 ft | 527 kts | 89° |
| 2026-05-04 10:12 | 55.41487 | 60.61234 | 35176 ft | 526 kts | 89° |
| 2026-05-04 10:12 | 55.41783 | 60.74096 | 35120 ft | 527 kts | 90° |
| 2026-05-04 10:13 | 55.42185 | 60.86866 | 35125 ft | 530 kts | 82° |
| 2026-05-04 10:13 | 55.43851 | 60.99461 | 35132 ft | 531 kts | 77° |
| 2026-05-04 10:14 | 55.45517 | 61.12017 | 35168 ft | 529 kts | 77° |
| 2026-05-04 10:16 | 55.52002 | 61.62600 | 35141 ft | 532 kts | 77° |
| 2026-05-04 10:16 | 55.53601 | 61.75380 | 35127 ft | 532 kts | 78° |
| 2026-05-04 10:17 | 55.55165 | 61.88030 | 35134 ft | 532 kts | 78° |
| 2026-05-04 10:19 | 55.61352 | 62.39029 | 35145 ft | 534 kts | 79° |
| 2026-05-04 10:19 | 55.62865 | 62.51802 | 35142 ft | 532 kts | 79° |
| 2026-05-04 10:20 | 55.64362 | 62.64565 | 35128 ft | 534 kts | 78° |
| 2026-05-04 10:20 | 55.65857 | 62.77455 | 35119 ft | 535 kts | 79° |
| 2026-05-04 10:21 | 55.67338 | 62.90328 | 35124 ft | 535 kts | 79° |
| 2026-05-04 10:21 | 55.68804 | 63.03195 | 35134 ft | 535 kts | 79° |
| 2026-05-04 10:22 | 55.70964 | 63.22395 | 35127 ft | 532 kts | 79° |
| 2026-05-04 10:23 | 55.72393 | 63.35254 | 35093 ft | 529 kts | 79° |
| 2026-05-04 10:25 | 55.76630 | 63.86955 | 35152 ft | 530 kts | 97° |
| 2026-05-04 10:25 | 55.76138 | 63.99997 | 35137 ft | 529 kts | 96° |
| 2026-05-04 10:26 | 55.75654 | 64.12956 | 35118 ft | 532 kts | 96° |
| 2026-05-04 10:26 | 55.75146 | 64.26041 | 35145 ft | 534 kts | 96° |
| 2026-05-04 10:27 | 55.74628 | 64.39074 | 35158 ft | 533 kts | 97° |
| 2026-05-04 10:27 | 55.74094 | 64.52100 | 35140 ft | 533 kts | 97° |
| 2026-05-04 10:28 | 55.73543 | 64.65196 | 35136 ft | 533 kts | 97° |
| 2026-05-04 10:28 | 55.72980 | 64.78299 | 35129 ft | 533 kts | 98° |
| 2026-05-04 10:29 | 55.72404 | 64.91344 | 35136 ft | 534 kts | 98° |
| 2026-05-04 10:29 | 55.71814 | 65.04393 | 35151 ft | 536 kts | 98° |
| 2026-05-04 10:30 | 55.71209 | 65.17479 | 35173 ft | 536 kts | 97° |
| 2026-05-04 10:30 | 55.70586 | 65.30615 | 35149 ft | 536 kts | 98° |
| 2026-05-04 10:31 | 55.69952 | 65.43697 | 35160 ft | 536 kts | 97° |
| 2026-05-04 10:32 | 55.67616 | 65.89651 | 35177 ft | 537 kts | 99° |
| 2026-05-04 10:33 | 55.66916 | 66.02751 | 35190 ft | 538 kts | 98° |
| 2026-05-04 10:33 | 55.66201 | 66.15896 | 35204 ft | 539 kts | 98° |
| 2026-05-04 10:34 | 55.65470 | 66.29059 | 35203 ft | 538 kts | 98° |
| 2026-05-04 10:34 | 55.64727 | 66.42159 | 35212 ft | 539 kts | 98° |
| 2026-05-04 10:35 | 55.63971 | 66.55272 | 35220 ft | 539 kts | 98° |
| 2026-05-04 10:35 | 55.63198 | 66.68427 | 35214 ft | 539 kts | 99° |
| 2026-05-04 10:36 | 55.62415 | 66.81542 | 35212 ft | 540 kts | 99° |
| 2026-05-04 10:36 | 55.61615 | 66.94682 | 35232 ft | 539 kts | 99° |
| 2026-05-04 10:37 | 55.60801 | 67.07790 | 35251 ft | 540 kts | 98° |
| 2026-05-04 10:37 | 55.59972 | 67.20926 | 35253 ft | 540 kts | 98° |
| 2026-05-04 10:39 | 55.56972 | 67.66642 | 35267 ft | 537 kts | 100° |
| 2026-05-04 10:40 | 55.56085 | 67.79710 | 35250 ft | 536 kts | 99° |
| 2026-05-04 10:40 | 55.55185 | 67.92735 | 35278 ft | 537 kts | 99° |
| 2026-05-04 10:41 | 55.54479 | 68.05797 | 35264 ft | 538 kts | 89° |
| 2026-05-04 10:41 | 55.54842 | 68.18988 | 35296 ft | 539 kts | 88° |
| 2026-05-04 10:42 | 55.55105 | 68.32108 | 35300 ft | 538 kts | 89° |
| 2026-05-04 10:42 | 55.55336 | 68.45231 | 35298 ft | 538 kts | 88° |
| 2026-05-04 10:43 | 55.55551 | 68.58371 | 35299 ft | 538 kts | 88° |
| 2026-05-04 10:45 | 55.56271 | 69.11009 | 35303 ft | 538 kts | 89° |
| 2026-05-04 10:45 | 55.56248 | 69.24174 | 35301 ft | 539 kts | 90° |
| 2026-05-04 10:46 | 55.56846 | 69.37291 | 35325 ft | 539 kts | 84° |
| 2026-05-04 10:46 | 55.57362 | 69.50520 | 35312 ft | 539 kts | 85° |
| 2026-05-04 10:47 | 55.57778 | 69.63711 | 35328 ft | 539 kts | 85° |
| 2026-05-04 10:47 | 55.58168 | 69.76844 | 35294 ft | 540 kts | 87° |
| 2026-05-04 10:49 | 55.59587 | 70.29609 | 35343 ft | 537 kts | 86° |
| 2026-05-04 10:50 | 55.59905 | 70.42744 | 35349 ft | 537 kts | 86° |
| 2026-05-04 10:52 | 55.61031 | 70.95106 | 35356 ft | 534 kts | 86° |
| 2026-05-04 10:52 | 55.61278 | 71.08198 | 35363 ft | 534 kts | 86° |
| 2026-05-04 10:54 | 55.58993 | 71.53583 | 35370 ft | 532 kts | 98° |
| 2026-05-04 10:54 | 55.58454 | 71.60069 | 35373 ft | 533 kts | 97° |
| 2026-05-04 10:56 | 55.54049 | 72.11687 | 35363 ft | 535 kts | 98° |
| 2026-05-04 10:57 | 55.52913 | 72.24549 | 35375 ft | 534 kts | 98° |
| 2026-05-04 10:57 | 55.51766 | 72.37406 | 35379 ft | 532 kts | 97° |
| 2026-05-04 10:58 | 55.50603 | 72.50289 | 35373 ft | 533 kts | 97° |
| 2026-05-04 10:58 | 55.49432 | 72.63084 | 35374 ft | 532 kts | 97° |
| 2026-05-04 10:59 | 55.48248 | 72.75898 | 35337 ft | 533 kts | 98° |
| 2026-05-04 10:59 | 55.47046 | 72.88763 | 35361 ft | 530 kts | 98° |
| 2026-05-04 11:00 | 55.45841 | 73.01479 | 35363 ft | 531 kts | 98° |
| 2026-05-04 11:02 | 55.40876 | 73.52392 | 35367 ft | 530 kts | 97° |
| 2026-05-04 11:05 | 55.31062 | 74.47232 | 35351 ft | 525 kts | 98° |
| 2026-05-04 11:06 | 55.29706 | 74.59781 | 35356 ft | 525 kts | 98° |
| 2026-05-04 11:06 | 55.28342 | 74.72292 | 35320 ft | 526 kts | 99° |
| 2026-05-04 11:10 | 55.18464 | 75.59358 | 35365 ft | 518 kts | 98° |
| 2026-05-04 11:12 | 55.12614 | 76.08344 | 35383 ft | 516 kts | 98° |
| 2026-05-04 11:12 | 55.11124 | 76.20523 | 35379 ft | 512 kts | 98° |
| 2026-05-04 11:13 | 55.09629 | 76.32651 | 35373 ft | 512 kts | 99° |
| 2026-05-04 11:13 | 55.08136 | 76.44653 | 35367 ft | 509 kts | 99° |
| 2026-05-04 11:16 | 55.00535 | 77.04245 | 35359 ft | 501 kts | 100° |
| 2026-05-04 11:16 | 54.98993 | 77.16030 | 35357 ft | 500 kts | 100° |
| 2026-05-04 11:17 | 54.97450 | 77.27730 | 35351 ft | 500 kts | 100° |
| 2026-05-04 11:19 | 54.91504 | 77.74406 | 35320 ft | 489 kts | 90° |
| 2026-05-04 11:19 | 54.90839 | 77.86186 | 35326 ft | 492 kts | 95° |
| 2026-05-04 11:20 | 54.89913 | 77.97851 | 35333 ft | 492 kts | 95° |
| 2026-05-04 11:20 | 54.88913 | 78.09601 | 35328 ft | 492 kts | 96° |
| 2026-05-04 11:22 | 54.84921 | 78.56240 | 35326 ft | 489 kts | 95° |
| 2026-05-04 11:23 | 54.83907 | 78.67786 | 35306 ft | 489 kts | 96° |
| 2026-05-04 11:25 | 54.80250 | 79.08397 | 35301 ft | 488 kts | 96° |
| 2026-05-04 11:25 | 54.79181 | 79.19978 | 35307 ft | 488 kts | 96° |
| 2026-05-04 11:27 | 54.74242 | 79.71915 | 35281 ft | 489 kts | 97° |
| 2026-05-04 11:28 | 54.73114 | 79.83468 | 35292 ft | 489 kts | 97° |
| 2026-05-04 11:28 | 54.71977 | 79.94973 | 35307 ft | 489 kts | 97° |
| 2026-05-04 11:29 | 54.70819 | 80.06564 | 35384 ft | 489 kts | 97° |
| 2026-05-04 11:29 | 54.69661 | 80.18040 | 35368 ft | 487 kts | 97° |
| 2026-05-04 11:33 | 54.61253 | 80.98228 | 35382 ft | 488 kts | 97° |
| 2026-05-04 11:33 | 54.60006 | 81.09674 | 35382 ft | 488 kts | 97° |
| 2026-05-04 11:34 | 54.58744 | 81.21159 | 35381 ft | 488 kts | 97° |
| 2026-05-04 11:34 | 54.57474 | 81.32605 | 35381 ft | 489 kts | 97° |
| 2026-05-04 11:35 | 54.56198 | 81.44002 | 35377 ft | 488 kts | 97° |
| 2026-05-04 11:35 | 54.54907 | 81.55428 | 35378 ft | 488 kts | 97° |
| 2026-05-04 11:36 | 54.53598 | 81.66918 | 35367 ft | 489 kts | 98° |
| 2026-05-04 11:36 | 54.52288 | 81.78328 | 35349 ft | 490 kts | 98° |
| 2026-05-04 11:37 | 54.50958 | 81.89798 | 35362 ft | 491 kts | 98° |
| 2026-05-04 11:37 | 54.49609 | 82.01324 | 35366 ft | 491 kts | 98° |
| 2026-05-04 11:38 | 54.48266 | 82.12700 | 35368 ft | 490 kts | 98° |
| 2026-05-04 11:38 | 54.46900 | 82.24168 | 35371 ft | 491 kts | 98° |
| 2026-05-04 11:39 | 54.45525 | 82.35619 | 35374 ft | 493 kts | 98° |
| 2026-05-04 11:41 | 54.40610 | 82.75785 | 35344 ft | 495 kts | 99° |
| 2026-05-04 11:41 | 54.39171 | 82.87328 | 35357 ft | 495 kts | 99° |
| 2026-05-04 11:42 | 54.37730 | 82.98783 | 35360 ft | 496 kts | 99° |
| 2026-05-04 11:42 | 54.36275 | 83.10254 | 35361 ft | 496 kts | 99° |
| 2026-05-04 11:43 | 54.34799 | 83.21792 | 35379 ft | 497 kts | 99° |
| 2026-05-04 11:43 | 54.33315 | 83.33303 | 35367 ft | 497 kts | 99° |
| 2026-05-04 11:44 | 54.31816 | 83.44836 | 35375 ft | 497 kts | 99° |
| 2026-05-04 11:44 | 54.30314 | 83.56301 | 35372 ft | 497 kts | 99° |
| 2026-05-04 11:45 | 54.28796 | 83.67801 | 35356 ft | 498 kts | 99° |
| 2026-05-04 11:45 | 54.27267 | 83.79310 | 35337 ft | 499 kts | 99° |
| 2026-05-04 11:46 | 54.25721 | 83.90845 | 35366 ft | 500 kts | 99° |
| 2026-05-04 11:46 | 54.24162 | 84.02364 | 35365 ft | 499 kts | 99° |
| 2026-05-04 11:47 | 54.22592 | 84.13890 | 35367 ft | 501 kts | 99° |
| 2026-05-04 11:47 | 54.21008 | 84.25422 | 35370 ft | 501 kts | 99° |
| 2026-05-04 11:48 | 54.19405 | 84.37008 | 35374 ft | 502 kts | 99° |
| 2026-05-04 11:48 | 54.17793 | 84.48561 | 35373 ft | 503 kts | 99° |
| 2026-05-04 11:49 | 54.16172 | 84.60097 | 35368 ft | 502 kts | 100° |
| 2026-05-04 11:49 | 54.14545 | 84.71597 | 35337 ft | 503 kts | 101° |
| 2026-05-04 11:50 | 54.12899 | 84.83156 | 35357 ft | 504 kts | 101° |
| 2026-05-04 11:50 | 54.11241 | 84.94694 | 35368 ft | 505 kts | 101° |
| 2026-05-04 11:51 | 54.09566 | 85.06261 | 35371 ft | 505 kts | 101° |
| 2026-05-04 11:51 | 54.07877 | 85.17841 | 35362 ft | 507 kts | 101° |
| 2026-05-04 11:52 | 54.06172 | 85.29442 | 35365 ft | 507 kts | 101° |
| 2026-05-04 11:52 | 54.04467 | 85.40958 | 35364 ft | 507 kts | 101° |
| 2026-05-04 11:53 | 54.02737 | 85.52560 | 35364 ft | 507 kts | 101° |
| 2026-05-04 11:53 | 54.01001 | 85.64111 | 35377 ft | 506 kts | 100° |
| 2026-05-04 11:55 | 53.92037 | 86.08897 | 35378 ft | 514 kts | 134° |
| 2026-05-04 11:56 | 53.86592 | 86.16658 | 35288 ft | 515 kts | 153° |
| 2026-05-04 11:56 | 53.83335 | 86.18810 | 35301 ft | 506 kts | 170° |
| 2026-05-04 11:56 | 53.79834 | 86.19403 | 35320 ft | 501 kts | 187° |
| 2026-05-04 11:56 | 53.76493 | 86.18404 | 35332 ft | 490 kts | 204° |
| 2026-05-04 11:57 | 53.73398 | 86.16122 | 35373 ft | 485 kts | 207° |
| 2026-05-04 11:57 | 53.70110 | 86.14588 | 35327 ft | 499 kts | 190° |
| 2026-05-04 11:57 | 53.66672 | 86.14638 | 35316 ft | 503 kts | 173° |
| 2026-05-04 11:57 | 53.63268 | 86.16302 | 35334 ft | 512 kts | 156° |
| 2026-05-04 11:58 | 53.60270 | 86.19399 | 35353 ft | 514 kts | 140° |
| 2026-05-04 11:58 | 53.57827 | 86.23779 | 35347 ft | 513 kts | 123° |
| 2026-05-04 11:58 | 53.56187 | 86.28989 | 35347 ft | 509 kts | 106° |
| 2026-05-04 11:59 | 53.52859 | 86.39381 | 35340 ft | 513 kts | 134° |
| 2026-05-04 11:59 | 53.50116 | 86.43182 | 35352 ft | 511 kts | 146° |
| 2026-05-04 11:59 | 53.47421 | 86.47010 | 35359 ft | 515 kts | 130° |
| 2026-05-04 12:00 | 53.43499 | 86.56870 | 35334 ft | 511 kts | 108° |
| 2026-05-04 12:00 | 53.42639 | 86.62540 | 35343 ft | 500 kts | 91° |
| 2026-05-04 12:00 | 53.42726 | 86.68304 | 35309 ft | 494 kts | 75° |
| 2026-05-04 12:00 | 53.43732 | 86.73650 | 35315 ft | 484 kts | 58° |
| 2026-05-04 12:01 | 53.45177 | 86.78719 | 35334 ft | 488 kts | 66° |
| 2026-05-04 12:01 | 53.45884 | 86.84308 | 35314 ft | 497 kts | 82° |
| 2026-05-04 12:02 | 53.47026 | 87.19103 | 35358 ft | 501 kts | 82° |
| 2026-05-04 12:03 | 53.48274 | 87.30349 | 35295 ft | 484 kts | 58° |
| 2026-05-04 12:03 | 53.51971 | 87.39444 | 35336 ft | 474 kts | 40° |
| 2026-05-04 12:04 | 53.54483 | 87.42841 | 35315 ft | 457 kts | 23° |
| 2026-05-04 12:04 | 53.57381 | 87.44743 | 35328 ft | 445 kts | 6° |
| 2026-05-04 12:04 | 53.60401 | 87.45047 | 35331 ft | 434 kts | 349° |
| 2026-05-04 12:04 | 53.63279 | 87.43834 | 35350 ft | 429 kts | 336° |
| 2026-05-04 12:05 | 53.65909 | 87.41508 | 35167 ft | 423 kts | 322° |
| 2026-05-04 12:05 | 53.67995 | 87.38168 | 34920 ft | 417 kts | 308° |
| 2026-05-04 12:05 | 53.69442 | 87.33984 | 34657 ft | 415 kts | 293° |
| 2026-05-04 12:05 | 53.70133 | 87.29260 | 34374 ft | 418 kts | 278° |
| 2026-05-04 12:06 | 53.70015 | 87.24394 | 34110 ft | 424 kts | 264° |
| 2026-05-04 12:06 | 53.69082 | 87.19640 | 33838 ft | 432 kts | 248° |
| 2026-05-04 12:06 | 53.67398 | 87.15414 | 33554 ft | 442 kts | 233° |
| 2026-05-04 12:06 | 53.65063 | 87.12007 | 33289 ft | 451 kts | 218° |
| 2026-05-04 12:07 | 53.62249 | 87.09682 | 33000 ft | 460 kts | 202° |
| 2026-05-04 12:07 | 53.59091 | 87.08591 | 32719 ft | 467 kts | 187° |
| 2026-05-04 12:07 | 53.55858 | 87.08849 | 32445 ft | 470 kts | 171° |
| 2026-05-04 12:07 | 53.52750 | 87.10434 | 32151 ft | 471 kts | 155° |
| 2026-05-04 12:08 | 53.49987 | 87.13219 | 31837 ft | 468 kts | 140° |
| 2026-05-04 12:08 | 53.47712 | 87.17064 | 31538 ft | 461 kts | 124° |
| 2026-05-04 12:08 | 53.46119 | 87.21625 | 31263 ft | 452 kts | 108° |
| 2026-05-04 12:08 | 53.45287 | 87.26610 | 30985 ft | 439 kts | 91° |
| 2026-05-04 12:09 | 53.45262 | 87.31597 | 30713 ft | 424 kts | 75° |
| 2026-05-04 12:09 | 53.46013 | 87.36234 | 30424 ft | 407 kts | 58° |
| 2026-05-04 12:09 | 53.47449 | 87.40160 | 30137 ft | 389 kts | 41° |
| 2026-05-04 12:09 | 53.49438 | 87.43092 | 29827 ft | 373 kts | 25° |
| 2026-05-04 12:10 | 53.51765 | 87.44780 | 29491 ft | 360 kts | 8° |
| 2026-05-04 12:10 | 53.54196 | 87.45115 | 29141 ft | 350 kts | 351° |
| 2026-05-04 12:10 | 53.56498 | 87.44116 | 28799 ft | 345 kts | 334° |
| 2026-05-04 12:10 | 53.58470 | 87.41882 | 28448 ft | 346 kts | 317° |
| 2026-05-04 12:11 | 53.59907 | 87.38609 | 28077 ft | 351 kts | 300° |
| 2026-05-04 12:11 | 53.60632 | 87.34654 | 27699 ft | 360 kts | 282° |
| 2026-05-04 12:11 | 53.60777 | 87.30478 | 27387 ft | 361 kts | 279° |
| 2026-05-04 12:11 | 53.60873 | 87.26263 | 27083 ft | 358 kts | 278° |
| 2026-05-04 12:12 | 53.60789 | 87.22103 | 26744 ft | 365 kts | 266° |
| 2026-05-04 12:12 | 53.60090 | 87.17980 | 26373 ft | 372 kts | 256° |
| 2026-05-04 12:12 | 53.59050 | 87.13967 | 26053 ft | 374 kts | 251° |
| 2026-05-04 12:12 | 53.57885 | 87.10110 | 25720 ft | 373 kts | 249° |
| 2026-05-04 12:13 | 53.56647 | 87.06279 | 25359 ft | 372 kts | 248° |
| 2026-05-04 12:14 | 53.48576 | 86.80415 | 22297 ft | 327 kts | 288° |
| 2026-05-04 12:15 | 53.49349 | 86.76979 | 21585 ft | 309 kts | 310° |
| 2026-05-04 12:15 | 53.50819 | 86.74530 | 20879 ft | 297 kts | 332° |
| 2026-05-04 12:15 | 53.52733 | 86.73418 | 20156 ft | 293 kts | 354° |
| 2026-05-04 12:15 | 53.54722 | 86.73834 | 19440 ft | 296 kts | 17° |
| 2026-05-04 12:16 | 53.56454 | 86.75710 | 18713 ft | 306 kts | 41° |
| 2026-05-04 12:16 | 53.57601 | 86.78762 | 18007 ft | 320 kts | 64° |
| 2026-05-04 12:16 | 53.57932 | 86.82486 | 17311 ft | 333 kts | 88° |
| 2026-05-04 12:16 | 53.57352 | 86.86292 | 16604 ft | 344 kts | 112° |
| 2026-05-04 12:17 | 53.55941 | 86.89501 | 15905 ft | 349 kts | 136° |
| 2026-05-04 12:17 | 53.53885 | 86.91635 | 15235 ft | 348 kts | 161° |
| 2026-05-04 12:17 | 53.51564 | 86.92316 | 14579 ft | 340 kts | 186° |
| 2026-05-04 12:17 | 53.49313 | 86.91492 | 13914 ft | 325 kts | 211° |
| 2026-05-04 12:18 | 53.47555 | 86.89397 | 13274 ft | 307 kts | 236° |
| 2026-05-04 12:18 | 53.46532 | 86.86449 | 12626 ft | 287 kts | 261° |
| 2026-05-04 12:18 | 53.46400 | 86.83266 | 11987 ft | 269 kts | 287° |
| 2026-05-04 12:18 | 53.47146 | 86.80507 | 11388 ft | 255 kts | 313° |
| 2026-05-04 12:19 | 53.48534 | 86.78816 | 10777 ft | 252 kts | 339° |
| 2026-05-04 12:19 | 53.50273 | 86.78498 | 10052 ft | 259 kts | 7° |
| 2026-05-04 12:19 | 53.51913 | 86.79670 | 9342 ft | 269 kts | 35° |
| 2026-05-04 12:19 | 53.53083 | 86.82119 | 8658 ft | 277 kts | 64° |
| 2026-05-04 12:20 | 53.53455 | 86.85307 | 7986 ft | 282 kts | 92° |
| 2026-05-04 12:20 | 53.52924 | 86.88410 | 7345 ft | 281 kts | 121° |
| 2026-05-04 12:20 | 53.51621 | 86.90776 | 6702 ft | 277 kts | 150° |
| 2026-05-04 12:20 | 53.49865 | 86.91845 | 6085 ft | 269 kts | 179° |
| 2026-05-04 12:21 | 53.48048 | 86.91381 | 5608 ft | 261 kts | 208° |
| 2026-05-04 12:21 | 53.46660 | 86.89580 | 5169 ft | 252 kts | 238° |
| 2026-05-04 12:21 | 53.46008 | 86.86951 | 4691 ft | 245 kts | 268° |
| 2026-05-04 12:21 | 53.46248 | 86.84204 | 4243 ft | 240 kts | 297° |
| 2026-05-04 12:22 | 53.47286 | 86.82138 | 3858 ft | 234 kts | 329° |
| 2026-05-04 12:22 | 53.48775 | 86.81333 | 3759 ft | 219 kts | 350° |
| 2026-05-04 12:22 | 53.50255 | 86.80924 | 3551 ft | 213 kts | 349° |
| 2026-05-04 12:22 | 53.51698 | 86.80469 | 3219 ft | 212 kts | 348° |
| 2026-05-04 12:23 | 53.53138 | 86.79958 | 2884 ft | 211 kts | 346° |
| 2026-05-04 12:23 | 53.54545 | 86.79399 | 2722 ft | 215 kts | 345° |
| 2026-05-04 12:23 | 53.56055 | 86.78733 | 2841 ft | 229 kts | 344° |
| 2026-05-04 12:23 | 53.57602 | 86.77985 | 2982 ft | 237 kts | 342° |
| 2026-05-04 12:24 | 53.59168 | 86.77215 | 2873 ft | 233 kts | 346° |
| 2026-05-04 12:24 | 53.60783 | 86.76826 | 2701 ft | 232 kts | 357° |
| 2026-05-04 12:24 | 53.62346 | 86.77101 | 2762 ft | 222 kts | 13° |
| 2026-05-04 12:24 | 53.63822 | 86.77786 | 2621 ft | 221 kts | 13° |
| 2026-05-04 12:25 | 53.65264 | 86.78468 | 2710 ft | 207 kts | 14° |
| 2026-05-04 12:25 | 53.66562 | 86.79150 | 2862 ft | 181 kts | 16° |
| 2026-05-04 12:25 | 53.67693 | 86.79791 | 2982 ft | 163 kts | 15° |
| 2026-05-04 12:25 | 53.68733 | 86.80474 | 2889 ft | 162 kts | 20° |
| 2026-05-04 12:26 | 53.69778 | 86.81148 | 2732 ft | 160 kts | 15° |
| 2026-05-04 12:26 | 53.70841 | 86.81694 | 2560 ft | 158 kts | 13° |
| 2026-05-04 12:26 | 53.71888 | 86.82189 | 2418 ft | 156 kts | 14° |
| 2026-05-04 12:26 | 53.72861 | 86.82822 | 2299 ft | 140 kts | 21° |
| 2026-05-04 12:27 | 53.73735 | 86.83454 | 2087 ft | 138 kts | 17° |
| 2026-05-04 12:27 | 53.74653 | 86.83954 | 1923 ft | 139 kts | 11° |
| 2026-05-04 12:27 | 53.75568 | 86.84417 | 1821 ft | 137 kts | 17° |
| 2026-05-04 12:27 | 53.76452 | 86.84999 | 1681 ft | 137 kts | 18° |
| 2026-05-04 12:28 | 53.77353 | 86.85571 | 1547 ft | 136 kts | 15° |
| 2026-05-04 12:28 | 53.78250 | 86.86063 | 1399 ft | 139 kts | 16° |
| 2026-05-04 12:28 | 53.79177 | 86.86627 | 1252 ft | 140 kts | 17° |
| 2026-05-04 12:28 | 53.80095 | 86.87169 | 1089 ft | 141 kts | 18° |
| 2026-05-04 12:29 | 53.80960 | 86.87700 | 1033 ft | 113 kts | 17° |
| 2026-05-04 12:29 | 53.81542 | 86.88050 | 1032 ft | 78 kts | 19° |
| 2026-05-04 12:29 | 53.81822 | 86.88222 | 1032 ft | 15 kts | 19° |
| 2026-05-04 12:29 | 53.81871 | 86.88212 | 1032 ft | 6 kts | 208° |
| 2026-05-04 12:30 | 53.81816 | 86.88213 | 1032 ft | 8 kts | 188° |
| 2026-05-04 12:30 | 53.81754 | 86.88179 | 1032 ft | 10 kts | 200° |
| 2026-05-04 12:30 | 53.81681 | 86.88134 | 1032 ft | 11 kts | 200° |
| 2026-05-04 12:30 | 53.81599 | 86.88082 | 1032 ft | 13 kts | 201° |
| 2026-05-04 12:31 | 53.81515 | 86.88030 | 1032 ft | 12 kts | 199° |
| 2026-05-04 12:31 | 53.81432 | 86.87979 | 1032 ft | 12 kts | 200° |
| 2026-05-04 12:31 | 53.81352 | 86.87931 | 1032 ft | 12 kts | 199° |
| 2026-05-04 12:31 | 53.81274 | 86.87884 | 1032 ft | 11 kts | 200° |
| 2026-05-04 12:32 | 53.81198 | 86.87839 | 1032 ft | 11 kts | 199° |
| 2026-05-04 12:32 | 53.81034 | 86.87740 | 1032 ft | 14 kts | 200° |
| 2026-05-04 12:32 | 53.80911 | 86.87663 | 1032 ft | 24 kts | 200° |
| 2026-05-04 12:33 | 53.80747 | 86.87563 | 1032 ft | 25 kts | 200° |
| 2026-05-04 12:33 | 53.80587 | 86.87464 | 1032 ft | 24 kts | 200° |
| 2026-05-04 12:33 | 53.80427 | 86.87369 | 1032 ft | 24 kts | 199° |
| 2026-05-04 12:33 | 53.80270 | 86.87271 | 1032 ft | 23 kts | 200° |
| 2026-05-04 12:34 | 53.80162 | 86.87202 | 1032 ft | 14 kts | 201° |
| 2026-05-04 12:34 | 53.80113 | 86.87119 | 1032 ft | 10 kts | 300° |
| 2026-05-04 12:34 | 53.80167 | 86.87049 | 1032 ft | 9 kts | 331° |
| 2026-05-04 12:34 | 53.80225 | 86.86994 | 1032 ft | 9 kts | 332° |
| 2026-05-04 12:35 | 53.80266 | 86.86923 | 1032 ft | 8 kts | 290° |
| 2026-05-04 12:35 | 53.80286 | 86.86832 | 1032 ft | 8 kts | 290° |
| 2026-05-04 12:35 | 53.80306 | 86.86746 | 1032 ft | 7 kts | 291° |
| 2026-05-04 12:35 | 53.80325 | 86.86663 | 1032 ft | 7 kts | 291° |
| 2026-05-04 12:36 | 53.80342 | 86.86584 | 1032 ft | 6 kts | 287° |
| 2026-05-04 12:36 | 53.80325 | 86.86523 | 1032 ft | 5 kts | 225° |
| 2026-05-04 12:36 | 53.80290 | 86.86481 | 1032 ft | 7 kts | 203° |
| 2026-05-04 12:36 | 53.80237 | 86.86449 | 1032 ft | 8 kts | 200° |
| 2026-05-04 12:37 | 53.80182 | 86.86414 | 1032 ft | 8 kts | 201° |
| 2026-05-04 12:37 | 53.80132 | 86.86374 | 1032 ft | 7 kts | 216° |
| 2026-05-04 12:37 | 53.80125 | 86.86315 | 1032 ft | 1 kts | 291° |
| 2026-05-04 12:37 | 53.80126 | 86.86314 | 1032 ft | 0 kts | 291° |